Time;durP1;ratioP1;P1;durP2;ratioP2;P2;SDS_P1;SDS_P2;PMS_P1;PMS_P2;Temp;Humidity;BMP_temperature;BMP_pressure;BME280_temperature;BME280_humidity;BME280_pressure;Samples;Min_cycle;Max_cycle;Signal;HPM_P1;HPM_P2
2021/11/06 00:00:56;;;;;;;;;;;;;;;5.32;100.00;101680.91;5112119;28;19927;-74
2021/11/06 00:03:22;;;;;;;;;;;;;;;5.29;100.00;101679.22;5112114;28;20025;-75
2021/11/06 00:05:48;;;;;;;;;;;;;;;5.28;100.00;101682.84;5112197;28;20023;-74
2021/11/06 00:08:15;;;;;;;;;;;;;;;5.27;100.00;101686.47;5111945;28;19967;-75
2021/11/06 00:10:41;;;;;;;;;;;;;;;5.27;100.00;101677.53;5112025;28;20389;-74
2021/11/06 00:13:07;;;;;;;;;;;;;;;5.27;100.00;101689.16;5112179;28;20014;-77
2021/11/06 00:15:35;;;;;;;;;;;;;;;5.31;100.00;101692.59;5112037;28;19962;-75
2021/11/06 00:18:01;;;;;;;;;;;;;;;5.35;100.00;101692.41;5112132;28;19924;-74
2021/11/06 00:20:28;;;;;;;;;;;;;;;5.42;100.00;101703.75;5111816;28;19936;-74
2021/11/06 00:22:54;;;;;;;;;;;;;;;5.52;100.00;101699.72;5111724;28;19955;-75
2021/11/06 00:25:23;;;;;;;;;;;;;;;5.60;100.00;101701.19;5112001;28;19966;-74
2021/11/06 00:27:49;;;;;;;;;;;;;;;5.64;100.00;101700.16;5111522;28;19985;-74
2021/11/06 00:30:16;;;;;;;;;;;;;;;5.69;100.00;101704.38;5110450;28;19974;-74
2021/11/06 00:32:44;;;;;;;;;;;;;;;5.77;100.00;101698.66;5110824;28;20007;-74
2021/11/06 00:35:11;;;;;;;;;;;;;;;5.83;100.00;101701.03;5111957;28;20425;-74
2021/11/06 00:37:38;;;;;;;;;;;;;;;5.89;100.00;101697.19;5111729;28;20272;-75
2021/11/06 00:40:06;;;;;;;;;;;;;;;5.92;100.00;101699.75;5111407;28;19966;-75
2021/11/06 00:42:32;;;;;;;;;;;;;;;5.94;100.00;101699.69;5111361;28;20011;-74
2021/11/06 00:44:58;;;;;;;;;;;;;;;5.93;100.00;101697.91;5111481;28;20023;-75
2021/11/06 00:47:25;;;;;;;;;;;;;;;5.89;100.00;101699.88;5111339;28;20491;-74
2021/11/06 00:49:52;;;;;;;;;;;;;;;5.81;100.00;101699.34;5111360;28;19959;-75
2021/11/06 00:52:19;;;;;;;;;;;;;;;5.73;100.00;101698.84;5111542;28;19993;-75
2021/11/06 00:54:45;;;;;;;;;;;;;;;5.69;100.00;101706.16;5111302;28;19923;-75
2021/11/06 00:57:11;;;;;;;;;;;;;;;5.72;100.00;101706.06;5111651;28;20018;-74
2021/11/06 00:59:38;;;;;;;;;;;;;;;5.78;100.00;101712.97;5111526;28;19928;-74
2021/11/06 01:02:04;;;;;;;;;;;;;;;5.84;100.00;101708.19;5111038;28;19928;-74
2021/11/06 01:04:31;;;;;;;;;;;;;;;5.91;100.00;101706.09;5111226;28;19978;-74
2021/11/06 01:06:58;;;;;;;;;;;;;;;5.99;100.00;101697.69;5111378;28;19924;-74
2021/11/06 01:09:24;;;;;;;;;;;;;;;6.04;100.00;101706.44;5111426;28;19978;-75
2021/11/06 01:11:51;;;;;;;;;;;;;;;6.07;100.00;101703.59;5111138;28;20419;-75
2021/11/06 01:14:17;;;;;;;;;;;;;;;6.14;100.00;101702.34;5111416;28;19955;-74
2021/11/06 01:16:44;;;;;;;;;;;;;;;6.16;100.00;101700.47;5111444;28;19924;-74
2021/11/06 01:19:10;;;;;;;;;;;;;;;6.23;100.00;101700.16;5111290;28;19963;-74
2021/11/06 01:21:36;;;;;;;;;;;;;;;6.26;100.00;101700.03;5110614;28;20025;-74
2021/11/06 01:24:04;;;;;;;;;;;;;;;6.29;100.00;101699.88;5111118;28;19931;-75
2021/11/06 01:26:31;;;;;;;;;;;;;;;6.32;100.00;101710.50;5111279;28;19923;-75
2021/11/06 01:28:57;;;;;;;;;;;;;;;6.35;100.00;101710.38;5111228;28;20022;-74
2021/11/06 01:31:24;;;;;;;;;;;;;;;6.37;100.00;101708.47;5111013;28;19924;-75
2021/11/06 01:33:50;;;;;;;;;;;;;;;6.39;100.00;101706.59;5111262;28;20372;-74
2021/11/06 01:36:16;;;;;;;;;;;;;;;6.44;100.00;101700.94;5110913;28;20010;-74
2021/11/06 01:38:43;;;;;;;;;;;;;;;6.45;100.00;101698.16;5111106;28;19924;-73
2021/11/06 01:41:11;;;;;;;;;;;;;;;6.47;100.00;101704.38;5110517;28;19927;-75
2021/11/06 01:43:38;;;;;;;;;;;;;;;6.49;100.00;101707.00;5110871;28;20005;-75
2021/11/06 01:46:05;;;;;;;;;;;;;;;6.49;100.00;101705.19;5114941;28;20014;-75
2021/11/06 01:48:31;;;;;;;;;;;;;;;6.50;100.00;101700.66;5115167;28;19927;-73
2021/11/06 01:50:59;;;;;;;;;;;;;;;6.52;100.00;101710.44;5114725;28;19934;-75
2021/11/06 01:53:25;;;;;;;;;;;;;;;6.54;100.00;101716.59;5114130;28;19943;-74
2021/11/06 01:55:53;;;;;;;;;;;;;;;6.57;100.00;101717.44;5096815;28;19979;-75
2021/11/06 01:58:21;;;;;;;;;;;;;;;6.60;100.00;101717.25;5094252;28;19967;-75
2021/11/06 02:00:47;;;;;;;;;;;;;;;6.62;100.00;101707.28;5094161;28;19974;-75
2021/11/06 02:03:15;;;;;;;;;;;;;;;6.64;100.00;101721.56;5094120;28;20449;-75
2021/11/06 02:05:41;;;;;;;;;;;;;;;6.64;100.00;101710.75;5094341;28;19934;-75
2021/11/06 02:08:08;;;;;;;;;;;;;;;6.64;100.00;101713.47;5094092;28;19968;-76
2021/11/06 02:10:34;;;;;;;;;;;;;;;6.64;100.00;101705.38;5094176;28;20433;-75
2021/11/06 02:13:00;;;;;;;;;;;;;;;6.64;100.00;101708.06;5094279;28;20408;-75
2021/11/06 02:15:28;;;;;;;;;;;;;;;6.65;100.00;101717.91;5094012;28;20023;-75
2021/11/06 02:17:54;;;;;;;;;;;;;;;6.65;100.00;101720.63;5093885;28;20042;-75
2021/11/06 02:20:21;;;;;;;;;;;;;;;6.65;100.00;101713.38;5093614;28;20673;-75
2021/11/06 02:22:49;;;;;;;;;;;;;;;6.66;100.00;101703.47;5093932;28;20412;-74
2021/11/06 02:25:16;;;;;;;;;;;;;;;6.69;100.00;101706.03;5093821;28;19972;-75
2021/11/06 02:27:43;;;;;;;;;;;;;;;6.67;100.00;101707.94;5093950;28;19924;-75
2021/11/06 02:30:11;;;;;;;;;;;;;;;6.68;100.00;101713.25;5093517;28;20015;-75
2021/11/06 02:36:24;;;;;;;;;;;;;;;6.72;100.00;101707.69;5093479;28;20293;-74
2021/11/06 02:38:52;;;;;;;;;;;;;;;6.68;100.00;101707.84;5093708;28;19997;-74
2021/11/06 02:41:18;;;;;;;;;;;;;;;6.68;100.00;101707.84;5093095;28;19969;-75
2021/11/06 02:43:45;;;;;;;;;;;;;;;6.70;100.00;101713.19;5093487;28;20450;-75
2021/11/06 02:46:11;;;;;;;;;;;;;;;6.71;100.00;101714.94;5093523;28;20305;-76
2021/11/06 02:48:37;;;;;;;;;;;;;;;6.72;100.00;101707.69;5093251;28;19959;-75
2021/11/06 02:51:04;;;;;;;;;;;;;;;6.72;100.00;101713.09;5092952;28;19924;-75
2021/11/06 02:53:30;;;;;;;;;;;;;;;6.75;100.00;101718.31;5093115;28;20347;-75
2021/11/06 02:55:58;;;;;;;;;;;;;;;6.77;100.00;101719.16;5092414;28;19924;-75
2021/11/06 02:58:24;;;;;;;;;;;;;;;6.77;100.00;101716.44;5093142;28;20438;-75
2021/11/06 03:00:50;;;;;;;;;;;;;;;6.76;100.00;101720.97;5093300;28;19924;-75
2021/11/06 03:03:17;;;;;;;;;;;;;;;6.79;100.00;101723.50;5093221;28;19993;-75
2021/11/06 03:05:43;;;;;;;;;;;;;;;6.80;100.00;101710.88;5092977;28;19924;-75
2021/11/06 03:08:09;;;;;;;;;;;;;;;6.81;100.00;101704.53;5092824;28;20404;-75
2021/11/06 03:10:36;;;;;;;;;;;;;;;6.81;100.00;101713.50;5092688;28;19928;-75
2021/11/06 03:13:03;;;;;;;;;;;;;;;6.82;100.00;101719.78;5093010;28;19929;-74
2021/11/06 03:15:30;;;;;;;;;;;;;;;6.82;100.00;101727.88;5092715;28;20028;-75
2021/11/06 03:17:56;;;;;;;;;;;;;;;6.82;100.00;101726.06;5093027;28;19963;-75
2021/11/06 03:20:22;;;;;;;;;;;;;;;6.82;100.00;101717.09;5092790;28;20413;-74
2021/11/06 03:22:50;;;;;;;;;;;;;;;6.83;100.00;101721.56;5092733;28;19962;-74
2021/11/06 03:25:16;;;;;;;;;;;;;;;6.83;100.00;101730.50;5092660;28;19981;-74
2021/11/06 03:27:43;;;;;;;;;;;;;;;6.85;100.00;101735.81;5092661;28;19981;-75
2021/11/06 03:30:11;;;;;;;;;;;;;;;6.85;100.00;101733.13;5092869;28;20309;-75
2021/11/06 03:32:38;;;;;;;;;;;;;;;6.85;100.00;101730.44;5092969;28;20405;-74
2021/11/06 03:35:05;;;;;;;;;;;;;;;6.83;100.00;101732.34;5094133;28;19928;-75
2021/11/06 03:37:32;;;;;;;;;;;;;;;6.83;100.00;101733.22;5092854;28;19986;-75
2021/11/06 03:39:58;;;;;;;;;;;;;;;6.84;100.00;101734.97;5092449;28;19951;-75
2021/11/06 03:42:24;;;;;;;;;;;;;;;6.84;100.00;101732.25;5092421;28;19967;-73
2021/11/06 03:44:51;;;;;;;;;;;;;;;6.84;100.00;101729.56;5091971;28;19947;-75
2021/11/06 03:47:18;;;;;;;;;;;;;;;6.85;100.00;101735.81;5093535;28;19924;-74
2021/11/06 03:49:44;;;;;;;;;;;;;;;6.85;100.00;101736.72;5112312;28;20407;-74
2021/11/06 03:52:12;;;;;;;;;;;;;;;6.86;100.00;101735.75;5112686;28;19966;-74
2021/11/06 03:54:38;;;;;;;;;;;;;;;6.87;100.00;101745.59;5112342;28;19935;-74
2021/11/06 03:57:05;;;;;;;;;;;;;;;6.89;100.00;101748.22;5112795;28;19977;-74
2021/11/06 03:59:31;;;;;;;;;;;;;;;6.86;100.00;101743.84;5112372;28;20018;-74
2021/11/06 04:01:58;;;;;;;;;;;;;;;6.87;100.00;101742.03;5111933;28;20012;-74
2021/11/06 04:04:25;;;;;;;;;;;;;;;6.87;100.00;101745.59;5111072;28;20303;-74
2021/11/06 04:06:52;;;;;;;;;;;;;;;6.87;100.00;101745.59;5112109;28;19924;-75
2021/11/06 04:09:18;;;;;;;;;;;;;;;6.86;100.00;101737.59;5112403;28;20015;-74
2021/11/06 04:11:44;;;;;;;;;;;;;;;6.85;100.00;101746.63;5112281;28;19927;-74
2021/11/06 04:14:11;;;;;;;;;;;;;;;6.86;100.00;101740.28;5112374;28;19925;-74
2021/11/06 04:16:37;;;;;;;;;;;;;;;6.86;100.00;101738.44;5112198;28;19924;-74
2021/11/06 04:19:03;;;;;;;;;;;;;;;6.85;100.00;101742.13;5111674;28;19924;-74
2021/11/06 04:21:32;;;;;;;;;;;;;;;6.84;100.00;101740.38;5111748;28;20014;-74
2021/11/06 04:23:59;;;;;;;;;;;;;;;6.82;100.00;101742.25;5111582;28;20023;-74
2021/11/06 04:26:25;;;;;;;;;;;;;;;6.83;100.00;101740.44;5111947;28;19924;-75
2021/11/06 04:28:51;;;;;;;;;;;;;;;6.82;100.00;101744.94;5111755;28;19924;-74
2021/11/06 04:31:17;;;;;;;;;;;;;;;6.82;100.00;101746.78;5111698;28;19963;-74
2021/11/06 04:33:44;;;;;;;;;;;;;;;6.85;100.00;101750.22;5111526;28;19963;-74
2021/11/06 04:36:10;;;;;;;;;;;;;;;6.86;100.00;101751.06;5111679;28;20361;-74
2021/11/06 04:38:38;;;;;;;;;;;;;;;6.87;100.00;101751.00;5111777;28;20402;-74
2021/11/06 04:41:04;;;;;;;;;;;;;;;6.87;100.00;101742.91;5111444;28;20526;-74
2021/11/06 04:43:30;;;;;;;;;;;;;;;6.87;100.00;101748.28;5110191;28;19928;-75
2021/11/06 04:45:57;;;;;;;;;;;;;;;6.87;100.00;101756.41;5111623;28;19973;-75
2021/11/06 04:48:23;;;;;;;;;;;;;;;6.87;100.00;101748.28;5111704;28;19984;-74
2021/11/06 04:50:49;;;;;;;;;;;;;;;6.89;100.00;101748.22;5111192;28;20027;-74
2021/11/06 04:53:16;;;;;;;;;;;;;;;6.89;100.00;101741.97;5111519;28;19928;-75
2021/11/06 04:55:43;;;;;;;;;;;;;;;6.89;100.00;101726.63;5111301;28;19962;-74
2021/11/06 04:58:10;;;;;;;;;;;;;;;6.89;100.00;101736.56;5111375;28;19932;-75
2021/11/06 05:00:36;;;;;;;;;;;;;;;6.91;100.00;101740.03;5111238;28;19978;-74
2021/11/06 05:03:02;;;;;;;;;;;;;;;6.90;100.00;101733.78;5111225;28;20016;-75
2021/11/06 05:05:29;;;;;;;;;;;;;;;6.92;100.00;101733.69;5111415;28;19950;-74
2021/11/06 05:07:55;;;;;;;;;;;;;;;6.92;100.00;101737.28;5111217;28;19989;-75
2021/11/06 05:10:21;;;;;;;;;;;;;;;6.92;100.00;101742.69;5111147;28;20354;-74
2021/11/06 05:12:50;;;;;;;;;;;;;;;6.94;100.00;101737.22;5111081;28;19970;-74
2021/11/06 05:15:16;;;;;;;;;;;;;;;6.94;100.00;101737.22;5111132;28;19928;-75
2021/11/06 05:17:43;;;;;;;;;;;;;;;6.94;100.00;101745.31;5111293;28;20362;-74
2021/11/06 05:20:10;;;;;;;;;;;;;;;6.95;100.00;101738.94;5113515;28;19968;-74
2021/11/06 05:22:36;;;;;;;;;;;;;;;6.94;100.00;101739.91;5115419;28;19935;-74
2021/11/06 05:25:04;;;;;;;;;;;;;;;6.92;100.00;101728.28;5115279;28;19959;-75
2021/11/06 05:27:30;;;;;;;;;;;;;;;6.93;100.00;101738.16;5115441;28;19935;-74
2021/11/06 05:29:59;;;;;;;;;;;;;;;6.91;100.00;101730.13;5114872;28;19962;-75
2021/11/06 05:32:25;;;;;;;;;;;;;;;6.90;100.00;101733.78;5115152;27;19930;-74
2021/11/06 05:34:52;;;;;;;;;;;;;;;6.91;100.00;101734.63;5115373;28;20393;-74
2021/11/06 05:37:18;;;;;;;;;;;;;;;6.90;100.00;101746.41;5115021;28;19930;-75
2021/11/06 05:39:45;;;;;;;;;;;;;;;6.89;100.00;101741.97;5114938;28;19924;-74
2021/11/06 05:42:11;;;;;;;;;;;;;;;6.90;100.00;101743.72;5115134;28;19927;-74
2021/11/06 05:44:37;;;;;;;;;;;;;;;6.90;100.00;101749.13;5114966;28;19985;-74
2021/11/06 05:47:05;;;;;;;;;;;;;;;6.89;100.00;101742.81;5115024;28;19924;-74
2021/11/06 05:49:31;;;;;;;;;;;;;;;6.88;100.00;101735.66;5114781;28;20020;-73
2021/11/06 05:51:58;;;;;;;;;;;;;;;6.87;100.00;101734.81;5110248;28;19928;-74
2021/11/06 05:54:24;;;;;;;;;;;;;;;6.89;100.00;101744.66;5113008;28;19924;-75
2021/11/06 05:56:50;;;;;;;;;;;;;;;6.88;100.00;101751.84;5112015;28;19955;-74
2021/11/06 05:59:17;;;;;;;;;;;;;;;6.91;100.00;101740.03;5114656;28;19928;-75
2021/11/06 06:01:43;;;;;;;;;;;;;;;6.90;100.00;101757.22;5109121;28;19928;-74
2021/11/06 06:04:11;;;;;;;;;;;;;;;6.86;100.00;101751.94;5096485;28;20022;-75
2021/11/06 06:06:37;;;;;;;;;;;;;;;6.83;100.00;101757.50;5096045;28;20450;-75
2021/11/06 06:09:03;;;;;;;;;;;;;;;6.82;100.00;101760.28;5111896;28;20384;-74
2021/11/06 06:11:30;;;;;;;;;;;;;;;6.81;100.00;101766.63;5111715;28;19928;-75
2021/11/06 06:13:56;;;;;;;;;;;;;;;6.80;100.00;101767.56;5093878;28;19928;-74
2021/11/06 06:16:22;;;;;;;;;;;;;;;6.80;100.00;101768.47;5092718;28;19974;-74
2021/11/06 06:18:49;;;;;;;;;;;;;;;6.80;100.00;101771.16;5098153;28;19928;-74
2021/11/06 06:21:16;;;;;;;;;;;;;;;6.81;100.00;101772.88;5114219;28;20027;-74
2021/11/06 06:23:43;;;;;;;;;;;;;;;6.81;100.00;101774.72;5101360;28;20377;-73
2021/11/06 06:26:09;;;;;;;;;;;;;;;6.81;100.00;101775.56;5097269;28;19953;-75
2021/11/06 06:28:36;;;;;;;;;;;;;;;6.83;100.00;101776.41;5112550;28;20420;-75
2021/11/06 06:31:02;;;;;;;;;;;;;;;6.86;100.00;101781.63;5113848;28;19955;-75
2021/11/06 06:33:29;;;;;;;;;;;;;;;6.85;100.00;101779.00;5113866;28;19939;-75
2021/11/06 06:35:55;;;;;;;;;;;;;;;6.87;100.00;101779.81;5110686;28;20410;-75
2021/11/06 06:38:22;;;;;;;;;;;;;;;6.88;100.00;101784.25;5102421;28;19970;-75
2021/11/06 06:40:49;;;;;;;;;;;;;;;6.91;100.00;101794.91;5105581;28;19963;-75
2021/11/06 06:43:15;;;;;;;;;;;;;;;6.89;100.00;101796.81;5113845;28;20018;-74
2021/11/06 06:45:42;;;;;;;;;;;;;;;6.90;100.00;101789.59;5113394;28;20026;-75
2021/11/06 06:48:08;;;;;;;;;;;;;;;6.92;100.00;101798.47;5111380;28;20018;-75
2021/11/06 06:50:34;;;;;;;;;;;;;;;6.92;100.00;101796.69;5093562;28;19951;-74
2021/11/06 06:53:01;;;;;;;;;;;;;;;6.96;100.00;101797.38;5103175;28;20019;-75
2021/11/06 06:55:28;;;;;;;;;;;;;;;6.97;100.00;101796.44;5109001;28;19924;-75
2021/11/06 06:57:55;;;;;;;;;;;;;;;7.02;100.00;101802.50;5113474;27;20026;-75
2021/11/06 07:00:21;;;;;;;;;;;;;;;7.05;100.00;101807.72;5113635;28;20342;-74
2021/11/06 07:02:47;;;;;;;;;;;;;;;7.06;100.00;101800.53;5111409;28;20023;-75
2021/11/06 07:05:13;;;;;;;;;;;;;;;7.10;100.00;101804.81;5096929;28;20034;-75
2021/11/06 07:07:40;;;;;;;;;;;;;;;7.18;100.00;101805.31;5113296;28;19992;-75
2021/11/06 07:10:07;;;;;;;;;;;;;;;7.29;100.00;101810.16;5113456;28;19924;-75
2021/11/06 07:12:35;;;;;;;;;;;;;;;7.34;100.00;101813.50;5111954;28;19927;-75
2021/11/06 07:15:01;;;;;;;;;;;;;;;7.37;100.00;101805.25;5111462;28;19967;-74
2021/11/06 07:17:28;;;;;;;;;;;;;;;7.38;100.00;101810.56;5111413;28;19927;-75
2021/11/06 07:19:54;;;;;;;;;;;;;;;7.42;100.00;101802.34;5111453;28;20340;-75
2021/11/06 07:22:20;;;;;;;;;;;;;;;7.47;100.00;101805.66;5112280;28;19963;-75
2021/11/06 07:24:47;;;;;;;;;;;;;;;7.50;100.00;101800.97;5112161;28;19924;-75
2021/11/06 07:27:13;;;;;;;;;;;;;;;7.51;100.00;101802.72;5112496;28;19931;-75
2021/11/06 07:29:41;;;;;;;;;;;;;;;7.63;100.00;101800.31;5113010;28;20061;-75
2021/11/06 07:32:07;;;;;;;;;;;;;;;7.66;100.00;101808.31;5112990;28;20381;-75
2021/11/06 07:34:34;;;;;;;;;;;;;;;7.68;100.00;101806.38;5112883;28;20019;-75
2021/11/06 07:37:00;;;;;;;;;;;;;;;7.73;100.00;101812.41;5112650;28;19997;-75
2021/11/06 07:39:27;;;;;;;;;;;;;;;7.69;100.00;101805.44;5112741;28;19959;-74
2021/11/06 07:41:53;;;;;;;;;;;;;;;7.68;100.00;101801.88;5111914;28;19959;-75
2021/11/06 07:44:19;;;;;;;;;;;;;;;7.74;100.00;101811.47;5112551;28;19927;-75
2021/11/06 07:46:47;;;;;;;;;;;;;;;7.76;100.00;101811.38;5112548;28;19963;-76
2021/11/06 07:49:14;;;;;;;;;;;;;;;7.70;100.00;101816.16;5112757;28;20020;-75
2021/11/06 07:51:40;;;;;;;;;;;;;;;7.72;100.00;101818.78;5104749;28;20364;-75
2021/11/06 07:54:06;;;;;;;;;;;;;;;7.75;100.00;101815.03;5091805;28;19963;-75
2021/11/06 07:56:34;;;;;;;;;;;;;;;7.75;100.00;101815.03;5092169;28;20435;-75
2021/11/06 07:59:00;;;;;;;;;;;;;;;7.80;100.00;101819.28;5091904;28;19924;-75
2021/11/06 08:01:27;;;;;;;;;;;;;;;7.81;100.00;101809.31;5091934;28;20389;-75
2021/11/06 08:03:55;;;;;;;;;;;;;;;7.81;100.00;101812.88;5091761;28;20035;-75
2021/11/06 08:06:21;;;;;;;;;;;;;;;7.85;100.00;101814.47;5092020;28;20035;-75
2021/11/06 08:08:47;;;;;;;;;;;;;;;7.87;100.00;101809.88;5092002;28;20015;-75
2021/11/06 08:11:14;;;;;;;;;;;;;;;7.86;100.00;101818.06;5091317;28;20553;-75
2021/11/06 08:13:40;;;;;;;;;;;;;;;7.87;100.00;101818.00;5090467;28;19932;-75
2021/11/06 08:16:06;;;;;;;;;;;;;;;7.90;100.00;101811.53;5091925;28;19977;-75
2021/11/06 08:18:33;;;;;;;;;;;;;;;7.97;100.00;101820.22;5091820;28;19994;-75
2021/11/06 08:21:00;;;;;;;;;;;;;;;8.00;100.00;101806.50;5091312;28;20366;-75
2021/11/06 08:23:27;;;;;;;;;;;;;;;8.12;100.00;101819.38;5091617;28;19924;-75
2021/11/06 08:25:53;;;;;;;;;;;;;;;8.18;100.00;101819.06;5091565;28;20014;-74
2021/11/06 08:28:21;;;;;;;;;;;;;;;8.29;100.00;101813.06;5091216;28;19970;-75
2021/11/06 08:30:47;;;;;;;;;;;;;;;8.35;100.00;101817.25;5091396;28;19924;-75
2021/11/06 08:33:14;;;;;;;;;;;;;;;8.35;100.00;101817.25;5091201;28;19974;-75
2021/11/06 08:35:40;;;;;;;;;;;;;;;8.38;100.00;101817.13;5091604;28;20366;-75
2021/11/06 08:38:09;;;;;;;;;;;;;;;8.40;100.00;101823.28;5091244;28;19959;-75
2021/11/06 08:40:35;;;;;;;;;;;;;;;8.44;100.00;101818.59;5091196;28;19943;-75
2021/11/06 08:43:01;;;;;;;;;;;;;;;8.44;100.00;101822.16;5091161;28;20015;-76
2021/11/06 08:45:28;;;;;;;;;;;;;;;8.49;100.00;101824.66;5090827;28;19962;-76
2021/11/06 08:47:54;;;;;;;;;;;;;;;8.41;100.00;101825.06;5091267;28;19967;-73
2021/11/06 08:50:22;;;;;;;;;;;;;;;8.40;100.00;101823.28;5090811;28;19928;-73
2021/11/06 08:52:49;;;;;;;;;;;;;;;8.46;100.00;101820.28;5091127;28;20014;-75
2021/11/06 08:55:17;;;;;;;;;;;;;;;8.46;100.00;101822.16;5090273;28;20440;-76
2021/11/06 08:57:44;;;;;;;;;;;;;;;8.38;100.00;101817.13;5091085;28;20053;-74
2021/11/06 09:00:14;;;;;;;;;;;;;;;8.41;100.00;101822.34;5090687;28;19936;-74
2021/11/06 09:02:40;;;;;;;;;;;;;;;8.38;100.00;101817.97;5090755;28;19955;-76
2021/11/06 09:05:08;;;;;;;;;;;;;;;8.41;100.00;101816.94;5091006;28;20333;-74
2021/11/06 09:07:34;;;;;;;;;;;;;;;8.49;100.00;101813.84;5090926;28;19969;-76
2021/11/06 09:10:01;;;;;;;;;;;;;;;8.64;100.00;101812.13;5090801;28;19967;-75
2021/11/06 09:12:29;;;;;;;;;;;;;;;8.77;100.00;101820.44;5090782;28;19960;-75
2021/11/06 09:14:55;;;;;;;;;;;;;;;8.85;100.00;101813.59;5090885;28;19924;-76
2021/11/06 09:17:21;;;;;;;;;;;;;;;8.86;100.00;101806.38;5090622;28;19928;-75
2021/11/06 09:19:50;;;;;;;;;;;;;;;8.91;100.00;101804.25;5090441;28;19982;-75
2021/11/06 09:22:16;;;;;;;;;;;;;;;8.93;100.00;101815.88;5090624;28;20301;-75
2021/11/06 09:24:43;;;;;;;;;;;;;;;8.93;100.00;101807.75;5090677;28;19967;-75
2021/11/06 09:27:09;;;;;;;;;;;;;;;8.93;100.00;101821.31;5090833;28;19955;-75
2021/11/06 09:29:37;;;;;;;;;;;;;;;8.88;100.00;101817.97;5091264;28;19930;-76
2021/11/06 09:32:03;;;;;;;;;;;;;;;8.91;100.00;101825.06;5090622;28;20393;-76
2021/11/06 09:34:29;;;;;;;;;;;;;;;8.90;100.00;101815.19;5090693;28;19951;-74
2021/11/06 09:36:56;;;;;;;;;;;;;;;8.84;100.00;101824.53;5090537;28;20013;-75
2021/11/06 09:39:22;;;;;;;;;;;;;;;8.88;100.00;101823.41;5090653;28;19973;-75
2021/11/06 09:41:49;;;;;;;;;;;;;;;8.88;100.00;101821.56;5090575;28;20016;-75
2021/11/06 09:44:15;;;;;;;;;;;;;;;8.96;100.00;101825.66;5090553;28;19963;-75
2021/11/06 09:46:42;;;;;;;;;;;;;;;8.92;100.00;101818.69;5090489;28;19960;-76
2021/11/06 09:49:09;;;;;;;;;;;;;;;8.91;100.00;101820.50;5098489;28;20007;-75
2021/11/06 09:51:36;;;;;;;;;;;;;;;9.00;100.00;101827.25;5110977;28;19970;-74
2021/11/06 09:54:05;;;;;;;;;;;;;;;9.02;100.00;101814.50;5110641;28;19982;-74
2021/11/06 09:56:31;;;;;;;;;;;;;;;9.11;100.00;101816.66;5092263;28;19924;-75
2021/11/06 09:59:01;;;;;;;;;;;;;;;9.23;100.00;101819.63;5110792;28;19928;-74
2021/11/06 10:01:27;;;;;;;;;;;;;;;9.34;100.00;101812.63;5110543;28;19928;-74
2021/11/06 10:03:55;;;;;;;;;;;;;;;9.52;100.00;101797.09;5110697;28;19963;-74
2021/11/06 10:06:21;;;;;;;;;;;;;;;9.58;100.00;101793.16;5113396;28;19970;-74
2021/11/06 10:08:48;;;;;;;;;;;;;;;9.65;100.00;101805.38;5113140;28;19985;-74
2021/11/06 10:11:16;;;;;;;;;;;;;;;9.74;100.00;101803.94;5114305;28;19923;-74
2021/11/06 10:13:48;;;;;;;;;;;;;;;9.66;100.00;101808.94;5113573;28;19928;-74
2021/11/06 10:16:17;;;;;;;;;;;;;;;9.74;100.00;101803.06;5114283;28;20413;-74
2021/11/06 10:18:43;;;;;;;;;;;;;;;9.56;100.00;101805.91;5114385;28;19959;-75
2021/11/06 10:21:11;;;;;;;;;;;;;;;9.43;100.00;101805.75;5114253;28;20362;-76
2021/11/06 10:23:38;;;;;;;;;;;;;;;9.32;100.00;101805.53;5113894;28;19927;-74
2021/11/06 10:26:08;;;;;;;;;;;;;;;9.27;100.00;101815.78;5113913;28;19966;-75
2021/11/06 10:28:34;;;;;;;;;;;;;;;9.27;100.00;101813.06;5113910;28;19923;-76
2021/11/06 10:31:02;;;;;;;;;;;;;;;9.23;100.00;101806.94;5113867;28;20367;-76
2021/11/06 10:33:28;;;;;;;;;;;;;;;9.25;100.00;101796.03;5114021;28;19970;-77
2021/11/06 10:35:58;;;;;;;;;;;;;;;9.30;100.00;101805.63;5113738;28;19989;-76
2021/11/06 10:38:28;;;;;;;;;;;;;;;9.35;100.00;101798.13;5114061;27;20385;-76
2021/11/06 10:40:56;;;;;;;;;;;;;;;9.40;100.00;101794.25;5113588;28;20346;-76
2021/11/06 10:43:23;;;;;;;;;;;;;;;9.41;100.00;101807.72;5113724;28;19931;-76
2021/11/06 10:45:50;;;;;;;;;;;;;;;9.28;100.00;101806.69;5113720;28;20381;-75
2021/11/06 10:48:18;;;;;;;;;;;;;;;9.19;100.00;101803.56;5113506;28;20020;-75
2021/11/06 10:50:55;;;;;;;;;;;;;;;9.11;100.00;101811.22;5113688;28;19923;-75
2021/11/06 10:53:36;;;;;;;;;;;;;;;9.08;100.00;101805.13;5113551;28;19927;-76
2021/11/06 10:56:05;;;;;;;;;;;;;;;9.14;100.00;101799.34;5114078;28;20286;-75
2021/11/06 10:58:33;;;;;;;;;;;;;;;9.23;100.00;101790.69;5113636;28;20007;-76
2021/11/06 11:01:00;;;;;;;;;;;;;;;9.30;100.00;101783.97;5113684;28;19970;-77
2021/11/06 11:03:28;;;;;;;;;;;;;;;9.46;100.00;101780.31;5113297;28;20117;-76
2021/11/06 11:05:55;;;;;;;;;;;;;;;9.70;100.00;101775.25;5113727;28;19932;-76
2021/11/06 11:08:21;;;;;;;;;;;;;;;9.83;100.00;101770.81;5113555;28;19967;-75
2021/11/06 11:10:49;;;;;;;;;;;;;;;9.87;100.00;101766.09;5113418;28;20385;-75
2021/11/06 11:13:16;;;;;;;;;;;;;;;9.88;100.00;101774.13;5113882;28;19927;-75
2021/11/06 11:15:44;;;;;;;;;;;;;;;9.90;100.00;101768.63;5113342;28;19958;-75
2021/11/06 11:18:26;;;;;;;;;;;;;;;9.76;100.00;101774.03;5109499;28;19932;-75
2021/11/06 11:20:52;;;;;;;;;;;;;;;9.68;100.00;101766.34;5092531;28;20079;-76
2021/11/06 11:23:21;;;;;;;;;;;;;;;9.61;100.00;101775.84;5092620;28;19977;-75
2021/11/06 11:25:49;;;;;;;;;;;;;;;9.58;100.00;101766.06;5092681;28;19970;-76
2021/11/06 11:28:15;;;;;;;;;;;;;;;9.55;100.00;101764.41;5093719;28;20296;-77
2021/11/06 11:30:42;;;;;;;;;;;;;;;9.63;100.00;101763.91;5092646;28;19950;-75
2021/11/06 11:33:09;;;;;;;;;;;;;;;9.70;100.00;101767.13;5092393;28;19924;-75
2021/11/06 11:35:36;;;;;;;;;;;;;;;9.76;100.00;101763.19;5092408;28;19932;-75
2021/11/06 11:38:03;;;;;;;;;;;;;;;9.73;100.00;101772.38;5092160;28;19928;-75
2021/11/06 11:40:31;;;;;;;;;;;;;;;9.63;100.00;101768.47;5092176;28;19932;-75
2021/11/06 11:43:06;;;;;;;;;;;;;;;9.60;100.00;101769.53;5092156;28;20001;-77
2021/11/06 11:45:38;;;;;;;;;;;;;;;9.60;100.00;101763.25;5099779;28;19927;-75
2021/11/06 11:48:07;;;;;;;;;;;;;;;9.70;100.00;101754.44;5112828;28;19927;-75
2021/11/06 11:50:35;;;;;;;;;;;;;;;9.80;100.00;101752.03;5112145;28;19928;-75
2021/11/06 11:53:02;;;;;;;;;;;;;;;9.95;100.00;101746.63;5112658;28;19988;-75
2021/11/06 11:55:33;;;;;;;;;;;;;;;10.01;100.00;101746.25;5112298;28;19924;-75
2021/11/06 11:58:09;;;;;;;;;;;;;;;10.03;100.00;101756.06;5109165;28;19928;-75
2021/11/06 12:00:37;;;;;;;;;;;;;;;10.06;100.00;101744.09;5112415;28;19927;-75
2021/11/06 12:03:05;;;;;;;;;;;;;;;10.08;100.00;101749.47;5112241;28;19976;-75
2021/11/06 12:05:33;;;;;;;;;;;;;;;10.24;100.00;101742.09;5112732;28;19928;-74
2021/11/06 12:08:21;;;;;;;;;;;;;;;10.36;100.00;101735.03;5112066;28;19928;-75
2021/11/06 12:10:47;;;;;;;;;;;;;;;10.43;100.00;101746.38;5112006;28;20377;-74
2021/11/06 12:13:30;;;;;;;;;;;;;;;10.62;100.00;101738.78;5111219;28;20022;-76
2021/11/06 12:15:58;;;;;;;;;;;;;;;10.56;100.00;101736.47;5111883;28;19934;-76
2021/11/06 12:18:43;;;;;;;;;;;;;;;10.53;100.00;101731.25;5111745;28;19932;-76
2021/11/06 12:21:22;;;;;;;;;;;;;;;10.40;100.00;101724.88;5111802;28;20222;-76
2021/11/06 12:23:51;;;;;;;;;;;;;;;10.38;100.00;101722.22;5111872;28;19924;-75
2021/11/06 12:26:18;;;;;;;;;;;;;;;10.46;100.00;101724.44;5112036;28;19924;-76
2021/11/06 12:28:45;;;;;;;;;;;;;;;10.54;100.00;101723.00;5111722;28;20368;-76
2021/11/06 12:31:29;;;;;;;;;;;;;;;10.39;100.00;101729.41;5112543;28;20377;-76
2021/11/06 12:33:58;;;;;;;;;;;;;;;10.27;100.00;101731.03;5110142;28;19932;-75
2021/11/06 12:36:25;;;;;;;;;;;;;;;10.15;100.00;101729.09;5090737;28;20098;-76
2021/11/06 12:38:51;;;;;;;;;;;;;;;10.20;100.00;101729.69;5091314;28;20012;-75